sensor_id;sensor_type;location;lat;lon;timestamp;temperature;humidity
51655;DHT22;37732;53.106;7.030;2022-07-23T00:01:12;15.30;99.90
51655;DHT22;37732;53.106;7.030;2022-07-23T00:03:38;15.40;99.90
51655;DHT22;37732;53.106;7.030;2022-07-23T00:06:06;15.30;99.90
51655;DHT22;37732;53.106;7.030;2022-07-23T00:08:33;15.30;99.90
51655;DHT22;37732;53.106;7.030;2022-07-23T00:11:00;15.30;99.90
51655;DHT22;37732;53.106;7.030;2022-07-23T00:13:28;15.30;99.90
51655;DHT22;37732;53.106;7.030;2022-07-23T00:15:55;15.30;99.90
51655;DHT22;37732;53.106;7.030;2022-07-23T00:18:21;15.30;99.90
51655;DHT22;37732;53.106;7.030;2022-07-23T00:20:51;15.30;99.90
51655;DHT22;37732;53.106;7.030;2022-07-23T00:23:18;15.30;99.90
51655;DHT22;37732;53.106;7.030;2022-07-23T00:25:45;15.20;99.90
51655;DHT22;37732;53.106;7.030;2022-07-23T00:28:12;15.20;99.90
51655;DHT22;37732;53.106;7.030;2022-07-23T00:30:40;15.20;99.90
51655;DHT22;37732;53.106;7.030;2022-07-23T00:33:08;15.20;99.90
51655;DHT22;37732;53.106;7.030;2022-07-23T00:35:38;15.10;99.90
51655;DHT22;37732;53.106;7.030;2022-07-23T00:38:09;15.10;99.90
51655;DHT22;37732;53.106;7.030;2022-07-23T00:40:37;15.10;99.90
51655;DHT22;37732;53.106;7.030;2022-07-23T00:43:04;15.10;99.90
51655;DHT22;37732;53.106;7.030;2022-07-23T00:45:31;15.10;99.90
51655;DHT22;37732;53.106;7.030;2022-07-23T00:47:58;15.00;99.90
51655;DHT22;37732;53.106;7.030;2022-07-23T00:50:27;15.00;99.90
51655;DHT22;37732;53.106;7.030;2022-07-23T00:52:53;14.90;99.90
51655;DHT22;37732;53.106;7.030;2022-07-23T00:55:21;14.90;99.90
51655;DHT22;37732;53.106;7.030;2022-07-23T00:57:49;14.90;99.90
51655;DHT22;37732;53.106;7.030;2022-07-23T01:00:16;14.90;99.90
51655;DHT22;37732;53.106;7.030;2022-07-23T01:02:43;14.90;99.90
51655;DHT22;37732;53.106;7.030;2022-07-23T01:05:10;14.90;99.90
51655;DHT22;37732;53.106;7.030;2022-07-23T01:07:38;14.80;99.90
51655;DHT22;37732;53.106;7.030;2022-07-23T01:10:06;14.80;99.90
51655;DHT22;37732;53.106;7.030;2022-07-23T01:12:52;14.80;99.90
51655;DHT22;37732;53.106;7.030;2022-07-23T01:15:20;14.70;99.90
51655;DHT22;37732;53.106;7.030;2022-07-23T01:17:45;14.70;99.90
51655;DHT22;37732;53.106;7.030;2022-07-23T01:20:11;14.70;99.90
51655;DHT22;37732;53.106;7.030;2022-07-23T01:22:37;14.60;99.90
51655;DHT22;37732;53.106;7.030;2022-07-23T01:25:05;14.50;99.90
51655;DHT22;37732;53.106;7.030;2022-07-23T01:27:32;14.50;99.90
51655;DHT22;37732;53.106;7.030;2022-07-23T01:30:03;14.40;99.90
51655;DHT22;37732;53.106;7.030;2022-07-23T01:32:29;14.40;99.90
51655;DHT22;37732;53.106;7.030;2022-07-23T01:34:55;14.40;99.90
51655;DHT22;37732;53.106;7.030;2022-07-23T01:37:21;14.30;99.90
51655;DHT22;37732;53.106;7.030;2022-07-23T01:39:48;14.20;99.90
51655;DHT22;37732;53.106;7.030;2022-07-23T01:42:16;14.20;99.90
51655;DHT22;37732;53.106;7.030;2022-07-23T01:44:43;14.20;99.90
51655;DHT22;37732;53.106;7.030;2022-07-23T01:47:10;14.20;99.90
51655;DHT22;37732;53.106;7.030;2022-07-23T01:49:37;14.20;99.90
51655;DHT22;37732;53.106;7.030;2022-07-23T01:52:04;14.20;99.90
51655;DHT22;37732;53.106;7.030;2022-07-23T01:54:34;14.20;99.90
51655;DHT22;37732;53.106;7.030;2022-07-23T01:57:01;14.20;99.90
51655;DHT22;37732;53.106;7.030;2022-07-23T01:59:28;14.20;99.90
51655;DHT22;37732;53.106;7.030;2022-07-23T02:01:56;14.20;99.90
51655;DHT22;37732;53.106;7.030;2022-07-23T02:04:24;14.20;99.90
51655;DHT22;37732;53.106;7.030;2022-07-23T02:06:52;14.20;99.90
51655;DHT22;37732;53.106;7.030;2022-07-23T02:09:18;14.10;99.90
51655;DHT22;37732;53.106;7.030;2022-07-23T02:11:45;14.10;99.90
51655;DHT22;37732;53.106;7.030;2022-07-23T02:14:12;14.10;99.90
51655;DHT22;37732;53.106;7.030;2022-07-23T02:16:39;14.10;99.90
51655;DHT22;37732;53.106;7.030;2022-07-23T02:19:06;14.00;99.90
51655;DHT22;37732;53.106;7.030;2022-07-23T02:21:33;14.00;99.90
51655;DHT22;37732;53.106;7.030;2022-07-23T02:24:01;14.00;99.90
51655;DHT22;37732;53.106;7.030;2022-07-23T02:26:28;13.90;99.90
51655;DHT22;37732;53.106;7.030;2022-07-23T02:28:54;13.80;99.90
51655;DHT22;37732;53.106;7.030;2022-07-23T02:31:22;13.80;99.90
51655;DHT22;37732;53.106;7.030;2022-07-23T02:33:48;13.70;99.90
51655;DHT22;37732;53.106;7.030;2022-07-23T02:36:17;13.70;99.90
51655;DHT22;37732;53.106;7.030;2022-07-23T02:38:44;13.60;99.90
51655;DHT22;37732;53.106;7.030;2022-07-23T02:41:11;13.60;99.90
51655;DHT22;37732;53.106;7.030;2022-07-23T02:43:39;13.50;99.90
51655;DHT22;37732;53.106;7.030;2022-07-23T02:46:06;13.40;99.90
51655;DHT22;37732;53.106;7.030;2022-07-23T02:48:34;13.40;99.90
51655;DHT22;37732;53.106;7.030;2022-07-23T02:51:01;13.30;99.90
51655;DHT22;37732;53.106;7.030;2022-07-23T02:53:28;13.30;99.90
51655;DHT22;37732;53.106;7.030;2022-07-23T02:55:54;13.20;99.90
51655;DHT22;37732;53.106;7.030;2022-07-23T02:58:20;13.20;99.90
51655;DHT22;37732;53.106;7.030;2022-07-23T03:00:46;13.10;99.90
51655;DHT22;37732;53.106;7.030;2022-07-23T03:03:12;13.10;99.90
51655;DHT22;37732;53.106;7.030;2022-07-23T03:05:40;13.00;99.90
51655;DHT22;37732;53.106;7.030;2022-07-23T03:08:07;13.00;99.90
51655;DHT22;37732;53.106;7.030;2022-07-23T03:10:35;13.00;99.90
51655;DHT22;37732;53.106;7.030;2022-07-23T03:13:02;13.00;99.90
51655;DHT22;37732;53.106;7.030;2022-07-23T03:15:29;13.00;99.90
51655;DHT22;37732;53.106;7.030;2022-07-23T03:17:57;12.90;99.90
51655;DHT22;37732;53.106;7.030;2022-07-23T03:20:24;12.90;99.90
51655;DHT22;37732;53.106;7.030;2022-07-23T03:22:51;12.90;99.90
51655;DHT22;37732;53.106;7.030;2022-07-23T03:25:19;12.90;99.90
51655;DHT22;37732;53.106;7.030;2022-07-23T03:27:44;12.90;99.90
51655;DHT22;37732;53.106;7.030;2022-07-23T03:30:14;12.80;99.90
51655;DHT22;37732;53.106;7.030;2022-07-23T03:32:41;12.80;99.90
51655;DHT22;37732;53.106;7.030;2022-07-23T03:35:09;12.70;99.90
51655;DHT22;37732;53.106;7.030;2022-07-23T03:37:34;12.70;99.90
51655;DHT22;37732;53.106;7.030;2022-07-23T03:40:00;12.60;99.90
51655;DHT22;37732;53.106;7.030;2022-07-23T03:42:27;12.60;99.90
51655;DHT22;37732;53.106;7.030;2022-07-23T03:44:53;12.60;99.90
51655;DHT22;37732;53.106;7.030;2022-07-23T03:47:20;12.60;99.90
51655;DHT22;37732;53.106;7.030;2022-07-23T03:49:48;12.60;99.90
51655;DHT22;37732;53.106;7.030;2022-07-23T03:52:16;12.50;99.90
51655;DHT22;37732;53.106;7.030;2022-07-23T03:54:43;12.40;99.90
51655;DHT22;37732;53.106;7.030;2022-07-23T03:57:09;12.30;99.90
51655;DHT22;37732;53.106;7.030;2022-07-23T03:59:39;12.20;99.90
51655;DHT22;37732;53.106;7.030;2022-07-23T04:02:06;12.20;99.90
51655;DHT22;37732;53.106;7.030;2022-07-23T04:04:35;12.20;99.90
51655;DHT22;37732;53.106;7.030;2022-07-23T04:07:01;12.20;99.90
51655;DHT22;37732;53.106;7.030;2022-07-23T04:09:30;12.20;99.90
51655;DHT22;37732;53.106;7.030;2022-07-23T04:11:58;12.20;99.90
51655;DHT22;37732;53.106;7.030;2022-07-23T04:14:24;12.20;99.90
51655;DHT22;37732;53.106;7.030;2022-07-23T04:16:53;12.20;99.90
51655;DHT22;37732;53.106;7.030;2022-07-23T04:19:19;12.20;99.90
51655;DHT22;37732;53.106;7.030;2022-07-23T04:21:48;12.20;99.90
51655;DHT22;37732;53.106;7.030;2022-07-23T04:24:16;12.20;99.90
51655;DHT22;37732;53.106;7.030;2022-07-23T04:26:44;12.20;99.90
51655;DHT22;37732;53.106;7.030;2022-07-23T04:29:11;12.20;99.90
51655;DHT22;37732;53.106;7.030;2022-07-23T04:31:38;12.20;99.90
51655;DHT22;37732;53.106;7.030;2022-07-23T04:34:04;12.20;99.90
51655;DHT22;37732;53.106;7.030;2022-07-23T04:36:30;12.20;99.90
51655;DHT22;37732;53.106;7.030;2022-07-23T04:38:56;12.20;99.90
51655;DHT22;37732;53.106;7.030;2022-07-23T04:41:23;12.30;99.90
51655;DHT22;37732;53.106;7.030;2022-07-23T04:43:50;12.30;99.90
51655;DHT22;37732;53.106;7.030;2022-07-23T04:46:18;12.40;99.90
51655;DHT22;37732;53.106;7.030;2022-07-23T04:48:45;12.40;99.90
51655;DHT22;37732;53.106;7.030;2022-07-23T04:51:12;12.50;99.90
51655;DHT22;37732;53.106;7.030;2022-07-23T04:53:39;12.60;99.90
51655;DHT22;37732;53.106;7.030;2022-07-23T04:56:07;12.70;99.90
51655;DHT22;37732;53.106;7.030;2022-07-23T04:58:34;12.80;99.90
51655;DHT22;37732;53.106;7.030;2022-07-23T05:01:01;12.90;99.90
51655;DHT22;37732;53.106;7.030;2022-07-23T05:03:27;13.00;99.90
51655;DHT22;37732;53.106;7.030;2022-07-23T05:05:56;13.10;99.90
51655;DHT22;37732;53.106;7.030;2022-07-23T05:08:24;13.20;99.90
51655;DHT22;37732;53.106;7.030;2022-07-23T05:10:50;13.30;99.90
51655;DHT22;37732;53.106;7.030;2022-07-23T05:13:19;13.40;99.90
51655;DHT22;37732;53.106;7.030;2022-07-23T05:15:48;13.40;99.90
51655;DHT22;37732;53.106;7.030;2022-07-23T05:18:15;13.50;99.90
51655;DHT22;37732;53.106;7.030;2022-07-23T05:20:43;13.50;99.90
51655;DHT22;37732;53.106;7.030;2022-07-23T05:23:10;13.60;99.90
51655;DHT22;37732;53.106;7.030;2022-07-23T05:25:39;13.70;99.90
51655;DHT22;37732;53.106;7.030;2022-07-23T05:28:05;13.70;99.90
51655;DHT22;37732;53.106;7.030;2022-07-23T05:30:31;13.80;99.90
51655;DHT22;37732;53.106;7.030;2022-07-23T05:33:00;13.90;99.90
51655;DHT22;37732;53.106;7.030;2022-07-23T05:35:28;13.90;99.90
51655;DHT22;37732;53.106;7.030;2022-07-23T05:37:55;14.00;99.90
51655;DHT22;37732;53.106;7.030;2022-07-23T05:40:21;14.10;99.90
51655;DHT22;37732;53.106;7.030;2022-07-23T05:42:51;14.20;99.90
51655;DHT22;37732;53.106;7.030;2022-07-23T05:45:19;14.20;99.90
51655;DHT22;37732;53.106;7.030;2022-07-23T05:47:48;14.30;99.90
51655;DHT22;37732;53.106;7.030;2022-07-23T05:50:15;14.40;99.90
51655;DHT22;37732;53.106;7.030;2022-07-23T05:52:41;14.40;99.90
51655;DHT22;37732;53.106;7.030;2022-07-23T05:55:10;14.50;99.90
51655;DHT22;37732;53.106;7.030;2022-07-23T05:57:36;14.60;99.90
51655;DHT22;37732;53.106;7.030;2022-07-23T06:00:04;14.70;99.90
51655;DHT22;37732;53.106;7.030;2022-07-23T06:02:31;14.80;99.90
51655;DHT22;37732;53.106;7.030;2022-07-23T06:04:59;14.80;99.90
51655;DHT22;37732;53.106;7.030;2022-07-23T06:07:26;14.90;99.90
51655;DHT22;37732;53.106;7.030;2022-07-23T06:09:52;15.00;99.90
51655;DHT22;37732;53.106;7.030;2022-07-23T06:12:20;15.10;99.90
51655;DHT22;37732;53.106;7.030;2022-07-23T06:14:45;15.30;99.90
51655;DHT22;37732;53.106;7.030;2022-07-23T06:17:13;15.30;99.90
51655;DHT22;37732;53.106;7.030;2022-07-23T06:19:39;15.40;99.90
51655;DHT22;37732;53.106;7.030;2022-07-23T06:22:06;15.50;99.90
51655;DHT22;37732;53.106;7.030;2022-07-23T06:24:34;15.60;99.90
51655;DHT22;37732;53.106;7.030;2022-07-23T06:27:01;15.60;99.90
51655;DHT22;37732;53.106;7.030;2022-07-23T06:29:28;15.70;99.90
51655;DHT22;37732;53.106;7.030;2022-07-23T06:31:56;15.80;99.90
51655;DHT22;37732;53.106;7.030;2022-07-23T06:34:23;15.90;99.90
51655;DHT22;37732;53.106;7.030;2022-07-23T06:36:50;16.00;99.90
51655;DHT22;37732;53.106;7.030;2022-07-23T06:39:16;16.10;99.90
51655;DHT22;37732;53.106;7.030;2022-07-23T06:41:42;16.20;99.90
51655;DHT22;37732;53.106;7.030;2022-07-23T06:44:08;16.20;99.90
51655;DHT22;37732;53.106;7.030;2022-07-23T06:46:36;16.20;99.90
51655;DHT22;37732;53.106;7.030;2022-07-23T06:49:03;16.30;99.90
51655;DHT22;37732;53.106;7.030;2022-07-23T06:51:30;16.40;99.90
51655;DHT22;37732;53.106;7.030;2022-07-23T06:53:57;16.50;99.90
51655;DHT22;37732;53.106;7.030;2022-07-23T06:56:25;16.60;99.90
51655;DHT22;37732;53.106;7.030;2022-07-23T06:58:52;16.70;99.90
51655;DHT22;37732;53.106;7.030;2022-07-23T07:01:20;16.80;99.90
51655;DHT22;37732;53.106;7.030;2022-07-23T07:03:47;16.80;99.90
51655;DHT22;37732;53.106;7.030;2022-07-23T07:06:14;17.00;99.90
51655;DHT22;37732;53.106;7.030;2022-07-23T07:08:41;17.10;99.90
51655;DHT22;37732;53.106;7.030;2022-07-23T07:11:09;17.30;99.90
51655;DHT22;37732;53.106;7.030;2022-07-23T07:13:37;17.40;99.90
51655;DHT22;37732;53.106;7.030;2022-07-23T07:16:04;17.50;99.90
51655;DHT22;37732;53.106;7.030;2022-07-23T07:18:30;17.50;99.90
51655;DHT22;37732;53.106;7.030;2022-07-23T07:20:58;17.60;99.90
51655;DHT22;37732;53.106;7.030;2022-07-23T07:23:24;17.70;99.90
51655;DHT22;37732;53.106;7.030;2022-07-23T07:25:51;17.70;99.90
51655;DHT22;37732;53.106;7.030;2022-07-23T07:28:18;17.70;99.90
51655;DHT22;37732;53.106;7.030;2022-07-23T07:30:45;17.80;99.90
51655;DHT22;37732;53.106;7.030;2022-07-23T07:33:12;17.80;99.90
51655;DHT22;37732;53.106;7.030;2022-07-23T07:35:39;17.90;99.90
51655;DHT22;37732;53.106;7.030;2022-07-23T07:38:06;18.00;99.90
51655;DHT22;37732;53.106;7.030;2022-07-23T07:40:33;18.10;99.90
51655;DHT22;37732;53.106;7.030;2022-07-23T07:43:00;18.30;99.90
51655;DHT22;37732;53.106;7.030;2022-07-23T07:45:29;18.40;99.90
51655;DHT22;37732;53.106;7.030;2022-07-23T07:47:55;18.50;99.90
51655;DHT22;37732;53.106;7.030;2022-07-23T07:50:23;18.50;99.90
51655;DHT22;37732;53.106;7.030;2022-07-23T07:52:51;18.40;99.90
51655;DHT22;37732;53.106;7.030;2022-07-23T07:55:18;18.50;99.90
51655;DHT22;37732;53.106;7.030;2022-07-23T07:57:45;18.60;99.90
51655;DHT22;37732;53.106;7.030;2022-07-23T08:00:12;18.70;99.90
51655;DHT22;37732;53.106;7.030;2022-07-23T08:02:52;18.80;99.90
51655;DHT22;37732;53.106;7.030;2022-07-23T08:05:27;18.80;99.90
51655;DHT22;37732;53.106;7.030;2022-07-23T08:07:58;19.00;99.90
51655;DHT22;37732;53.106;7.030;2022-07-23T08:10:26;18.90;99.90
51655;DHT22;37732;53.106;7.030;2022-07-23T08:12:55;18.80;99.90
51655;DHT22;37732;53.106;7.030;2022-07-23T08:15:27;18.80;99.90
51655;DHT22;37732;53.106;7.030;2022-07-23T08:17:56;18.90;99.90
51655;DHT22;37732;53.106;7.030;2022-07-23T08:20:24;19.00;99.90
51655;DHT22;37732;53.106;7.030;2022-07-23T08:22:55;19.00;99.90
51655;DHT22;37732;53.106;7.030;2022-07-23T08:25:28;19.10;99.90
51655;DHT22;37732;53.106;7.030;2022-07-23T08:27:55;19.20;99.90
51655;DHT22;37732;53.106;7.030;2022-07-23T08:30:21;19.60;99.90
51655;DHT22;37732;53.106;7.030;2022-07-23T08:32:49;19.90;99.90
51655;DHT22;37732;53.106;7.030;2022-07-23T08:35:15;20.20;99.90
51655;DHT22;37732;53.106;7.030;2022-07-23T08:37:44;20.50;99.90
51655;DHT22;37732;53.106;7.030;2022-07-23T08:40:10;20.80;99.90
51655;DHT22;37732;53.106;7.030;2022-07-23T08:42:36;20.80;99.90
51655;DHT22;37732;53.106;7.030;2022-07-23T08:45:03;20.90;99.90
51655;DHT22;37732;53.106;7.030;2022-07-23T08:47:31;21.10;99.90
51655;DHT22;37732;53.106;7.030;2022-07-23T08:49:58;21.30;99.90
51655;DHT22;37732;53.106;7.030;2022-07-23T08:52:24;21.50;99.90
51655;DHT22;37732;53.106;7.030;2022-07-23T08:54:52;21.70;99.90
51655;DHT22;37732;53.106;7.030;2022-07-23T08:57:19;21.70;99.90
51655;DHT22;37732;53.106;7.030;2022-07-23T08:59:45;21.40;99.50
51655;DHT22;37732;53.106;7.030;2022-07-23T09:02:12;21.30;99.90
51655;DHT22;37732;53.106;7.030;2022-07-23T09:04:38;21.20;99.70
51655;DHT22;37732;53.106;7.030;2022-07-23T09:07:03;21.20;99.60
51655;DHT22;37732;53.106;7.030;2022-07-23T09:09:30;21.10;99.40
51655;DHT22;37732;53.106;7.030;2022-07-23T09:12:06;21.00;99.40
51655;DHT22;37732;53.106;7.030;2022-07-23T09:14:46;21.00;99.90
51655;DHT22;37732;53.106;7.030;2022-07-23T09:17:17;21.00;98.90
51655;DHT22;37732;53.106;7.030;2022-07-23T09:19:44;20.80;99.80
51655;DHT22;37732;53.106;7.030;2022-07-23T09:22:22;20.90;99.10
51655;DHT22;37732;53.106;7.030;2022-07-23T09:25:08;21.10;99.90
51655;DHT22;37732;53.106;7.030;2022-07-23T09:27:51;21.10;98.20
51655;DHT22;37732;53.106;7.030;2022-07-23T09:30:29;21.30;99.10
51655;DHT22;37732;53.106;7.030;2022-07-23T09:33:10;21.60;98.60
51655;DHT22;37732;53.106;7.030;2022-07-23T09:35:48;21.80;98.70
51655;DHT22;37732;53.106;7.030;2022-07-23T09:38:14;22.20;99.30
51655;DHT22;37732;53.106;7.030;2022-07-23T09:40:40;22.40;98.10
51655;DHT22;37732;53.106;7.030;2022-07-23T09:43:07;22.40;96.90
51655;DHT22;37732;53.106;7.030;2022-07-23T09:45:33;22.50;97.90
51655;DHT22;37732;53.106;7.030;2022-07-23T09:48:15;22.50;96.90
51655;DHT22;37732;53.106;7.030;2022-07-23T09:50:42;22.50;98.10
51655;DHT22;37732;53.106;7.030;2022-07-23T09:53:13;22.50;98.50
51655;DHT22;37732;53.106;7.030;2022-07-23T09:55:49;22.40;99.00
51655;DHT22;37732;53.106;7.030;2022-07-23T09:58:21;22.40;99.80
51655;DHT22;37732;53.106;7.030;2022-07-23T10:00:47;22.50;99.90
51655;DHT22;37732;53.106;7.030;2022-07-23T10:03:15;22.30;99.00
51655;DHT22;37732;53.106;7.030;2022-07-23T10:05:42;22.40;99.90
51655;DHT22;37732;53.106;7.030;2022-07-23T10:08:11;22.80;99.90
51655;DHT22;37732;53.106;7.030;2022-07-23T10:10:41;23.00;99.30
51655;DHT22;37732;53.106;7.030;2022-07-23T10:13:07;23.30;98.60
51655;DHT22;37732;53.106;7.030;2022-07-23T10:15:34;23.50;98.60
51655;DHT22;37732;53.106;7.030;2022-07-23T10:18:02;23.80;97.90
51655;DHT22;37732;53.106;7.030;2022-07-23T10:20:29;23.90;97.20
51655;DHT22;37732;53.106;7.030;2022-07-23T10:23:30;24.00;97.10
51655;DHT22;37732;53.106;7.030;2022-07-23T10:31:50;23.30;95.50
51655;DHT22;37732;53.106;7.030;2022-07-23T10:34:40;23.40;93.30
51655;DHT22;37732;53.106;7.030;2022-07-23T10:37:15;23.50;97.00
51655;DHT22;37732;53.106;7.030;2022-07-23T10:39:46;23.40;95.10
51655;DHT22;37732;53.106;7.030;2022-07-23T10:42:15;23.40;97.40
51655;DHT22;37732;53.106;7.030;2022-07-23T10:44:46;23.40;96.00
51655;DHT22;37732;53.106;7.030;2022-07-23T10:47:29;23.30;94.80
51655;DHT22;37732;53.106;7.030;2022-07-23T10:50:35;23.00;93.60
51655;DHT22;37732;53.106;7.030;2022-07-23T10:55:43;22.80;95.90
51655;DHT22;37732;53.106;7.030;2022-07-23T10:58:10;23.00;96.20
51655;DHT22;37732;53.106;7.030;2022-07-23T11:00:38;23.30;96.20
51655;DHT22;37732;53.106;7.030;2022-07-23T11:03:33;23.50;97.00
51655;DHT22;37732;53.106;7.030;2022-07-23T11:06:03;23.60;91.60
51655;DHT22;37732;53.106;7.030;2022-07-23T11:08:30;23.20;93.70
51655;DHT22;37732;53.106;7.030;2022-07-23T11:11:10;23.10;94.70
51655;DHT22;37732;53.106;7.030;2022-07-23T11:13:48;23.10;98.10
51655;DHT22;37732;53.106;7.030;2022-07-23T11:16:21;23.30;97.80
51655;DHT22;37732;53.106;7.030;2022-07-23T11:24:15;23.60;97.00
51655;DHT22;37732;53.106;7.030;2022-07-23T11:26:48;23.50;97.40
51655;DHT22;37732;53.106;7.030;2022-07-23T11:32:05;23.40;96.10
51655;DHT22;37732;53.106;7.030;2022-07-23T11:37:00;23.00;96.70
51655;DHT22;37732;53.106;7.030;2022-07-23T11:39:28;22.70;96.00
51655;DHT22;37732;53.106;7.030;2022-07-23T11:41:55;22.70;96.10
51655;DHT22;37732;53.106;7.030;2022-07-23T11:44:30;22.60;96.20
51655;DHT22;37732;53.106;7.030;2022-07-23T11:46:57;22.70;96.90
51655;DHT22;37732;53.106;7.030;2022-07-23T11:49:26;22.70;95.50
51655;DHT22;37732;53.106;7.030;2022-07-23T11:54:55;22.80;97.40
51655;DHT22;37732;53.106;7.030;2022-07-23T11:57:27;23.00;96.70
51655;DHT22;37732;53.106;7.030;2022-07-23T11:59:57;23.00;97.70
51655;DHT22;37732;53.106;7.030;2022-07-23T12:02:26;23.20;97.70
51655;DHT22;37732;53.106;7.030;2022-07-23T12:04:53;23.40;95.90
51655;DHT22;37732;53.106;7.030;2022-07-23T12:07:35;23.50;94.90
51655;DHT22;37732;53.106;7.030;2022-07-23T12:10:20;23.60;96.90
51655;DHT22;37732;53.106;7.030;2022-07-23T12:12:53;23.80;95.10
51655;DHT22;37732;53.106;7.030;2022-07-23T12:15:34;23.70;95.90
51655;DHT22;37732;53.106;7.030;2022-07-23T12:18:07;23.70;97.40
51655;DHT22;37732;53.106;7.030;2022-07-23T12:20:39;23.40;95.40
51655;DHT22;37732;53.106;7.030;2022-07-23T12:23:08;23.10;96.80
51655;DHT22;37732;53.106;7.030;2022-07-23T12:25:39;23.00;95.30
51655;DHT22;37732;53.106;7.030;2022-07-23T12:28:13;23.20;96.80
51655;DHT22;37732;53.106;7.030;2022-07-23T12:30:45;23.50;96.90
51655;DHT22;37732;53.106;7.030;2022-07-23T12:33:25;23.70;97.30
51655;DHT22;37732;53.106;7.030;2022-07-23T12:35:53;23.90;96.70
51655;DHT22;37732;53.106;7.030;2022-07-23T12:38:21;24.00;95.00
51655;DHT22;37732;53.106;7.030;2022-07-23T12:40:56;24.10;96.10
51655;DHT22;37732;53.106;7.030;2022-07-23T12:43:35;24.30;94.50
51655;DHT22;37732;53.106;7.030;2022-07-23T12:46:09;24.40;92.30
51655;DHT22;37732;53.106;7.030;2022-07-23T12:48:38;24.30;92.40
51655;DHT22;37732;53.106;7.030;2022-07-23T12:51:08;24.10;94.20
51655;DHT22;37732;53.106;7.030;2022-07-23T12:53:41;24.10;93.10
51655;DHT22;37732;53.106;7.030;2022-07-23T12:56:15;24.10;95.10
51655;DHT22;37732;53.106;7.030;2022-07-23T12:58:45;24.10;94.30
51655;DHT22;37732;53.106;7.030;2022-07-23T13:04:00;24.30;92.60
51655;DHT22;37732;53.106;7.030;2022-07-23T13:06:31;24.40;92.50
51655;DHT22;37732;53.106;7.030;2022-07-23T13:08:59;24.60;93.80
51655;DHT22;37732;53.106;7.030;2022-07-23T13:11:28;24.40;93.30
51655;DHT22;37732;53.106;7.030;2022-07-23T13:13:54;24.40;94.40
51655;DHT22;37732;53.106;7.030;2022-07-23T13:16:19;24.40;95.20
51655;DHT22;37732;53.106;7.030;2022-07-23T13:18:47;24.40;95.60
51655;DHT22;37732;53.106;7.030;2022-07-23T13:21:14;24.40;94.50
51655;DHT22;37732;53.106;7.030;2022-07-23T13:23:42;24.70;93.40
51655;DHT22;37732;53.106;7.030;2022-07-23T13:26:08;24.80;92.60
51655;DHT22;37732;53.106;7.030;2022-07-23T13:28:34;24.70;93.60
51655;DHT22;37732;53.106;7.030;2022-07-23T13:31:00;24.90;94.60
51655;DHT22;37732;53.106;7.030;2022-07-23T13:33:28;25.10;94.00
51655;DHT22;37732;53.106;7.030;2022-07-23T13:35:55;25.30;94.70
51655;DHT22;37732;53.106;7.030;2022-07-23T13:38:21;25.30;92.40
51655;DHT22;37732;53.106;7.030;2022-07-23T13:40:50;25.40;91.50
51655;DHT22;37732;53.106;7.030;2022-07-23T13:43:19;25.40;92.00
51655;DHT22;37732;53.106;7.030;2022-07-23T13:45:45;25.50;93.30
51655;DHT22;37732;53.106;7.030;2022-07-23T13:48:13;25.60;93.70
51655;DHT22;37732;53.106;7.030;2022-07-23T13:50:41;25.70;90.00
51655;DHT22;37732;53.106;7.030;2022-07-23T13:53:10;25.60;87.30
51655;DHT22;37732;53.106;7.030;2022-07-23T13:55:37;25.70;88.20
51655;DHT22;37732;53.106;7.030;2022-07-23T13:58:05;26.00;92.50
51655;DHT22;37732;53.106;7.030;2022-07-23T14:00:32;26.30;90.50
51655;DHT22;37732;53.106;7.030;2022-07-23T14:02:59;26.50;85.80
51655;DHT22;37732;53.106;7.030;2022-07-23T14:05:26;26.70;86.30
51655;DHT22;37732;53.106;7.030;2022-07-23T14:07:53;26.90;82.20
51655;DHT22;37732;53.106;7.030;2022-07-23T14:10:21;27.10;81.00
51655;DHT22;37732;53.106;7.030;2022-07-23T14:12:49;27.30;93.60
51655;DHT22;37732;53.106;7.030;2022-07-23T14:15:16;27.20;76.50
51655;DHT22;37732;53.106;7.030;2022-07-23T14:17:43;26.90;81.00
51655;DHT22;37732;53.106;7.030;2022-07-23T14:20:13;26.70;84.20
51655;DHT22;37732;53.106;7.030;2022-07-23T14:22:41;26.40;84.80
51655;DHT22;37732;53.106;7.030;2022-07-23T14:25:10;26.30;87.70
51655;DHT22;37732;53.106;7.030;2022-07-23T14:27:36;26.20;87.20
51655;DHT22;37732;53.106;7.030;2022-07-23T14:30:06;26.20;86.40
51655;DHT22;37732;53.106;7.030;2022-07-23T14:32:33;26.20;85.00
51655;DHT22;37732;53.106;7.030;2022-07-23T14:34:59;26.10;84.40
51655;DHT22;37732;53.106;7.030;2022-07-23T14:37:25;25.90;83.00
51655;DHT22;37732;53.106;7.030;2022-07-23T14:39:51;25.70;86.90
51655;DHT22;37732;53.106;7.030;2022-07-23T14:42:18;25.70;86.10
51655;DHT22;37732;53.106;7.030;2022-07-23T14:44:46;25.70;84.00
51655;DHT22;37732;53.106;7.030;2022-07-23T14:47:14;25.80;84.90
51655;DHT22;37732;53.106;7.030;2022-07-23T14:49:41;25.90;81.00
51655;DHT22;37732;53.106;7.030;2022-07-23T14:52:08;26.10;86.20
51655;DHT22;37732;53.106;7.030;2022-07-23T14:54:36;26.00;84.30
51655;DHT22;37732;53.106;7.030;2022-07-23T14:57:03;25.90;84.60
51655;DHT22;37732;53.106;7.030;2022-07-23T14:59:31;25.80;88.30
51655;DHT22;37732;53.106;7.030;2022-07-23T15:01:58;25.70;90.10
51655;DHT22;37732;53.106;7.030;2022-07-23T15:04:24;25.50;87.30
51655;DHT22;37732;53.106;7.030;2022-07-23T15:06:52;25.50;86.70
51655;DHT22;37732;53.106;7.030;2022-07-23T15:09:22;25.50;84.70
51655;DHT22;37732;53.106;7.030;2022-07-23T15:11:49;25.50;87.80
51655;DHT22;37732;53.106;7.030;2022-07-23T15:14:16;25.40;87.80
51655;DHT22;37732;53.106;7.030;2022-07-23T15:16:44;25.20;87.00
51655;DHT22;37732;53.106;7.030;2022-07-23T15:19:09;25.10;87.10
51655;DHT22;37732;53.106;7.030;2022-07-23T15:21:39;24.90;92.50
51655;DHT22;37732;53.106;7.030;2022-07-23T15:24:06;24.80;91.80
51655;DHT22;37732;53.106;7.030;2022-07-23T15:26:34;24.80;92.90
51655;DHT22;37732;53.106;7.030;2022-07-23T15:29:02;25.00;92.30
51655;DHT22;37732;53.106;7.030;2022-07-23T15:31:29;24.90;87.10
51655;DHT22;37732;53.106;7.030;2022-07-23T15:33:55;24.80;93.60
51655;DHT22;37732;53.106;7.030;2022-07-23T15:36:21;25.00;93.40
51655;DHT22;37732;53.106;7.030;2022-07-23T15:38:47;25.10;90.90
51655;DHT22;37732;53.106;7.030;2022-07-23T15:41:14;25.10;92.60
51655;DHT22;37732;53.106;7.030;2022-07-23T15:43:42;25.00;94.00
51655;DHT22;37732;53.106;7.030;2022-07-23T15:46:09;25.10;95.00
51655;DHT22;37732;53.106;7.030;2022-07-23T15:48:37;25.30;93.30
51655;DHT22;37732;53.106;7.030;2022-07-23T15:51:04;25.10;93.00
51655;DHT22;37732;53.106;7.030;2022-07-23T15:53:32;24.80;92.20
51655;DHT22;37732;53.106;7.030;2022-07-23T15:56:00;24.70;93.60
51655;DHT22;37732;53.106;7.030;2022-07-23T15:58:28;24.70;94.30
51655;DHT22;37732;53.106;7.030;2022-07-23T16:00:56;24.60;95.90
51655;DHT22;37732;53.106;7.030;2022-07-23T16:03:24;24.70;96.10